Time;durP1;ratioP1;P1;durP2;ratioP2;P2;SDS_P1;SDS_P2;PMS_P1;PMS_P2;Temp;Humidity;BMP_temperature;BMP_pressure;BME280_temperature;BME280_humidity;BME280_pressure;Samples;Min_cycle;Max_cycle;Signal;HPM_P1;HPM_P2
2022/03/06 00:00:57;;;;;;;8.70;5.50;;;;;;101339.73;;;;107086;1276;64744;-37
2022/03/06 00:03:24;;;;;;;8.10;5.40;;;;;;101342.39;;;;107139;1276;63597;-37
2022/03/06 00:05:51;;;;;;;9.40;5.50;;;;;;101343.90;;;;107097;1276;65913;-37
2022/03/06 00:08:19;;;;;;;9.60;5.40;;;;;;101349.58;;;;107107;1276;64740;-33
2022/03/06 00:10:46;;;;;;;9.10;5.30;;;;;;101348.64;;;;107106;1274;65471;-32
2022/03/06 00:13:14;;;;;;;9.40;5.90;;;;;;101348.96;;;;107087;1275;64806;-39
2022/03/06 00:15:42;;;;;;;8.50;5.10;;;;;;101352.11;;;;107146;1276;64606;-37
2022/03/06 00:18:10;;;;;;;8.80;5.00;;;;;;101349.77;;;;107180;1276;65326;-32
2022/03/06 00:20:37;;;;;;;8.70;4.80;;;;;;101349.36;;;;107129;1275;64885;-31
2022/03/06 00:23:05;;;;;;;9.40;5.00;;;;;;101350.14;;;;107121;1276;65013;-32
2022/03/06 00:25:34;;;;;;;8.00;5.20;;;;;;101347.31;;;;107106;1276;64753;-32
2022/03/06 00:28:02;;;;;;;9.50;5.10;;;;;;101347.86;;;;107151;1274;63718;-32
2022/03/06 00:30:29;;;;;;;9.10;5.20;;;;;;101350.09;;;;107161;1273;64781;-32
2022/03/06 00:32:57;;;;;;;8.00;4.90;;;;;;101348.63;;;;107151;1273;65067;-32
2022/03/06 00:35:26;;;;;;;7.80;4.90;;;;;;101348.75;;;;107146;1273;64824;-32
2022/03/06 00:37:53;;;;;;;9.70;5.20;;;;;;101347.48;;;;107164;1274;64779;-32
2022/03/06 00:40:20;;;;;;;9.00;5.50;;;;;;101345.64;;;;107108;1274;64878;-32
2022/03/06 00:42:47;;;;;;;8.70;4.80;;;;;;101343.98;;;;107180;1274;64905;-37
2022/03/06 00:45:14;;;;;;;8.40;5.40;;;;;;101344.30;;;;107156;1273;64747;-37
2022/03/06 00:47:41;;;;;;;8.20;5.00;;;;;;101341.20;;;;107140;1273;64758;-36
2022/03/06 00:50:10;;;;;;;7.70;4.80;;;;;;101337.50;;;;107096;1273;64866;-37
2022/03/06 00:52:39;;;;;;;8.70;5.50;;;;;;101337.86;;;;107183;1273;64772;-39
2022/03/06 00:55:08;;;;;;;8.50;5.20;;;;;;101336.19;;;;107123;1274;66346;-37
2022/03/06 00:57:36;;;;;;;8.10;5.30;;;;;;101335.23;;;;107178;1274;64736;-37
2022/03/06 01:00:07;;;;;;;9.20;5.10;;;;;;101335.05;;;;107111;1274;66013;-37
2022/03/06 01:02:34;;;;;;;8.60;5.60;;;;;;101339.14;;;;107150;1273;64770;-37
2022/03/06 01:05:04;;;;;;;8.20;5.00;;;;;;101343.16;;;;107208;1274;65109;-36
2022/03/06 01:07:31;;;;;;;8.30;5.20;;;;;;101341.19;;;;107180;1273;64987;-32
2022/03/06 01:09:59;;;;;;;8.10;5.10;;;;;;101337.11;;;;107114;1274;64791;-32
2022/03/06 01:12:27;;;;;;;10.10;5.40;;;;;;101332.54;;;;107137;1274;64840;-32
2022/03/06 01:14:54;;;;;;;8.60;5.10;;;;;;101330.16;;;;106997;1273;64787;-32
2022/03/06 01:17:21;;;;;;;8.60;4.60;;;;;;101329.54;;;;107133;1273;64819;-30
2022/03/06 01:19:49;;;;;;;9.00;5.20;;;;;;101330.52;;;;107163;1274;66525;-36
2022/03/06 01:22:17;;;;;;;8.20;5.20;;;;;;101329.14;;;;107133;1273;64744;-35
2022/03/06 01:24:44;;;;;;;7.60;5.20;;;;;;101327.38;;;;107159;1273;65296;-31
2022/03/06 01:27:11;;;;;;;7.00;4.90;;;;;;101323.39;;;;107143;1273;64964;-31
2022/03/06 01:29:39;;;;;;;8.90;5.40;;;;;;101323.67;;;;107161;1273;64782;-31
2022/03/06 01:32:07;;;;;;;7.50;5.20;;;;;;101322.45;;;;107188;1274;66548;-32
2022/03/06 01:34:34;;;;;;;8.30;5.30;;;;;;101321.10;;;;107127;1274;64726;-36
2022/03/06 01:37:01;;;;;;;7.60;4.90;;;;;;101323.33;;;;107154;1273;64857;-39
2022/03/06 01:39:28;;;;;;;7.70;5.30;;;;;;101321.90;;;;107157;1273;64764;-32
2022/03/06 01:41:55;;;;;;;7.90;5.10;;;;;;101321.09;;;;107144;1273;65004;-31
2022/03/06 01:44:22;;;;;;;8.60;5.30;;;;;;101319.38;;;;107158;1273;65253;-35
2022/03/06 01:46:49;;;;;;;7.50;4.80;;;;;;101320.29;;;;107144;1273;64877;-36
2022/03/06 01:49:17;;;;;;;7.90;5.00;;;;;;101321.30;;;;107111;1274;64830;-32
2022/03/06 01:51:44;;;;;;;9.70;5.10;;;;;;101321.52;;;;107166;1273;64747;-32
2022/03/06 01:54:13;;;;;;;8.10;5.10;;;;;;101320.52;;;;107131;1273;64844;-32
2022/03/06 01:56:42;;;;;;;8.10;5.40;;;;;;101318.23;;;;107143;1274;66470;-32
2022/03/06 01:59:10;;;;;;;8.90;5.90;;;;;;101318.77;;;;107078;1274;64878;-31
2022/03/06 02:01:38;;;;;;;7.90;5.30;;;;;;101316.36;;;;107190;1273;64689;-32
2022/03/06 02:04:05;;;;;;;7.90;5.70;;;;;;101312.77;;;;107134;1274;64904;-32
2022/03/06 02:06:32;;;;;;;7.50;5.50;;;;;;101312.63;;;;107164;1274;64765;-32
2022/03/06 02:08:59;;;;;;;8.90;5.30;;;;;;101309.20;;;;107209;1273;65861;-32
2022/03/06 02:11:27;;;;;;;7.70;5.40;;;;;;101307.84;;;;107162;1273;64747;-32
2022/03/06 02:13:55;;;;;;;7.60;5.40;;;;;;101305.59;;;;107167;1274;64849;-36
2022/03/06 02:16:22;;;;;;;7.00;5.20;;;;;;101305.27;;;;107095;1274;64841;-37
2022/03/06 02:18:49;;;;;;;7.30;5.30;;;;;;101302.98;;;;107190;1274;64882;-32
2022/03/06 02:21:16;;;;;;;8.80;5.40;;;;;;101302.86;;;;107152;1273;67249;-35
2022/03/06 02:23:44;;;;;;;7.70;5.40;;;;;;101303.95;;;;107153;1273;64880;-36
2022/03/06 02:26:11;;;;;;;8.10;5.40;;;;;;101301.13;;;;107067;1276;64769;-37
2022/03/06 02:28:39;;;;;;;7.90;5.50;;;;;;101297.52;;;;107086;1274;64894;-36
2022/03/06 02:31:06;;;;;;;7.80;5.50;;;;;;101293.81;;;;107133;1274;64900;-39
2022/03/06 02:33:33;;;;;;;8.00;5.40;;;;;;101294.63;;;;107131;1274;67666;-37
2022/03/06 02:36:00;;;;;;;7.30;5.20;;;;;;101291.14;;;;107154;1274;64753;-36
2022/03/06 02:38:28;;;;;;;7.10;5.10;;;;;;101291.73;;;;107114;1274;64902;-32
2022/03/06 02:40:55;;;;;;;7.60;5.20;;;;;;101289.08;;;;107112;1274;64867;-32
2022/03/06 02:43:23;;;;;;;7.40;5.60;;;;;;101289.93;;;;107174;1274;64712;-34
2022/03/06 02:45:50;;;;;;;8.20;5.80;;;;;;101287.56;;;;107194;1273;65936;-32
2022/03/06 02:48:19;;;;;;;8.50;5.20;;;;;;101287.08;;;;107091;1276;64802;-37
2022/03/06 02:50:46;;;;;;;7.70;5.50;;;;;;101284.45;;;;107146;1273;65517;-38
2022/03/06 02:53:13;;;;;;;8.00;5.30;;;;;;101281.19;;;;107174;1274;64899;-32
2022/03/06 02:55:42;;;;;;;7.30;5.20;;;;;;101280.13;;;;107170;1273;64789;-34
2022/03/06 02:58:09;;;;;;;7.50;5.40;;;;;;101282.48;;;;107125;1274;64757;-37
2022/03/06 03:00:37;;;;;;;8.60;5.50;;;;;;101283.59;;;;107163;1274;64775;-37
2022/03/06 03:03:05;;;;;;;6.60;4.90;;;;;;101285.59;;;;107170;1274;64731;-36
2022/03/06 03:05:32;;;;;;;7.20;5.20;;;;;;101285.75;;;;107141;1274;64760;-36
2022/03/06 03:07:59;;;;;;;7.50;5.40;;;;;;101282.17;;;;107149;1274;64740;-31
2022/03/06 03:10:27;;;;;;;8.70;5.80;;;;;;101283.56;;;;107156;1273;65888;-31
2022/03/06 03:12:55;;;;;;;7.90;5.00;;;;;;101284.95;;;;107189;1273;64721;-31
2022/03/06 03:15:23;;;;;;;8.00;5.20;;;;;;101288.41;;;;107179;1274;64753;-31
2022/03/06 03:17:50;;;;;;;8.50;5.40;;;;;;101287.15;;;;107149;1273;64746;-32
2022/03/06 03:20:18;;;;;;;7.50;5.20;;;;;;101286.98;;;;107118;1276;64726;-31
2022/03/06 03:22:45;;;;;;;7.20;5.40;;;;;;101282.88;;;;107192;1274;64866;-32
2022/03/06 03:25:12;;;;;;;7.40;5.50;;;;;;101285.20;;;;107152;1273;64764;-31
2022/03/06 03:27:40;;;;;;;7.10;5.10;;;;;;101285.95;;;;107168;1273;64725;-31
2022/03/06 03:30:09;;;;;;;7.60;5.20;;;;;;101289.13;;;;107080;1274;65007;-32
2022/03/06 03:32:37;;;;;;;7.40;5.00;;;;;;101289.83;;;;107128;1274;65281;-32
2022/03/06 03:35:06;;;;;;;6.90;5.00;;;;;;101289.93;;;;107209;1274;66442;-32
2022/03/06 03:37:33;;;;;;;7.70;5.20;;;;;;101287.97;;;;107161;1273;64858;-32
2022/03/06 03:40:01;;;;;;;7.00;4.90;;;;;;101290.57;;;;107161;1273;64948;-32
2022/03/06 03:42:29;;;;;;;8.20;5.30;;;;;;101291.05;;;;107128;1274;64893;-31
2022/03/06 03:44:56;;;;;;;7.00;4.90;;;;;;101289.88;;;;107147;1273;64757;-31
2022/03/06 03:47:24;;;;;;;6.70;4.50;;;;;;101287.31;;;;107153;1273;65959;-31
2022/03/06 03:49:51;;;;;;;7.40;4.90;;;;;;101289.03;;;;107079;1276;64894;-32
2022/03/06 03:52:20;;;;;;;7.50;5.60;;;;;;101289.00;;;;107160;1273;64782;-32
2022/03/06 03:54:47;;;;;;;7.50;4.30;;;;;;101288.11;;;;107143;1274;64748;-37
2022/03/06 03:57:15;;;;;;;7.90;4.90;;;;;;101287.34;;;;107170;1273;64951;-36
2022/03/06 03:59:43;;;;;;;7.80;4.90;;;;;;101290.95;;;;107162;1273;67705;-37
2022/03/06 04:02:11;;;;;;;7.20;4.80;;;;;;101290.45;;;;107160;1273;64842;-38
2022/03/06 04:04:38;;;;;;;6.60;4.80;;;;;;101289.41;;;;107155;1273;64759;-32
2022/03/06 04:07:06;;;;;;;7.20;4.90;;;;;;101289.59;;;;107132;1274;64767;-31
2022/03/06 04:09:33;;;;;;;7.10;5.10;;;;;;101291.98;;;;107182;1273;64798;-32
2022/03/06 04:12:00;;;;;;;6.90;4.70;;;;;;101293.20;;;;107109;1274;66426;-32
2022/03/06 04:14:28;;;;;;;7.30;4.80;;;;;;101292.10;;;;107073;1277;64741;-32
2022/03/06 04:16:55;;;;;;;6.50;4.60;;;;;;101292.02;;;;107140;1274;64853;-43
2022/03/06 04:19:22;;;;;;;6.30;4.80;;;;;;101298.36;;;;107136;1273;65463;-37
2022/03/06 04:21:50;;;;;;;6.80;4.60;;;;;;101298.92;;;;107176;1274;64977;-36
2022/03/06 04:24:17;;;;;;;6.30;4.60;;;;;;101297.15;;;;107156;1273;65371;-31
2022/03/06 04:26:44;;;;;;;6.50;4.80;;;;;;101300.58;;;;106863;1274;281797;-31
2022/03/06 04:29:12;;;;;;;8.70;4.70;;;;;;101301.84;;;;107215;1273;65492;-32
2022/03/06 04:31:39;;;;;;;6.70;4.40;;;;;;101298.05;;;;107009;1277;64757;-32
2022/03/06 04:34:07;;;;;;;6.90;4.90;;;;;;101303.39;;;;107179;1274;64760;-32
2022/03/06 04:36:34;;;;;;;6.90;4.80;;;;;;101304.03;;;;107100;1274;66431;-32
2022/03/06 04:39:03;;;;;;;6.80;4.70;;;;;;101306.04;;;;107091;1276;64817;-37
2022/03/06 04:41:31;;;;;;;7.90;4.90;;;;;;101307.61;;;;107144;1273;66046;-37
2022/03/06 04:43:59;;;;;;;7.00;4.40;;;;;;101306.25;;;;107143;1276;64787;-37
2022/03/06 04:46:26;;;;;;;7.10;4.50;;;;;;101305.06;;;;107163;1274;64728;-37
2022/03/06 04:48:53;;;;;;;7.20;4.50;;;;;;101304.36;;;;107192;1274;66429;-37
2022/03/06 04:51:20;;;;;;;7.50;5.00;;;;;;101305.64;;;;107137;1274;64994;-37
2022/03/06 04:53:48;;;;;;;6.80;4.60;;;;;;101304.34;;;;107148;1274;64833;-32
2022/03/06 04:56:16;;;;;;;7.00;4.50;;;;;;101301.14;;;;107161;1274;64767;-31
2022/03/06 04:58:43;;;;;;;6.50;4.80;;;;;;101296.48;;;;107201;1274;64965;-39
2022/03/06 05:01:10;;;;;;;7.60;4.80;;;;;;101297.08;;;;107163;1274;66520;-38
2022/03/06 05:03:37;;;;;;;7.90;4.60;;;;;;101295.67;;;;107175;1274;64872;-32
2022/03/06 05:06:04;;;;;;;7.10;4.80;;;;;;101295.20;;;;107148;1273;64874;-31
2022/03/06 05:08:31;;;;;;;7.80;4.80;;;;;;101296.10;;;;107134;1274;64905;-39
2022/03/06 05:10:59;;;;;;;7.00;4.90;;;;;;101293.05;;;;107189;1273;64842;-37
2022/03/06 05:13:26;;;;;;;7.50;5.20;;;;;;101296.51;;;;107140;1274;66506;-36
2022/03/06 05:15:53;;;;;;;6.90;5.10;;;;;;101299.36;;;;107112;1274;65551;-37
2022/03/06 05:18:21;;;;;;;6.70;4.50;;;;;;101300.73;;;;107124;1274;64641;-32
2022/03/06 05:20:49;;;;;;;6.90;4.70;;;;;;101299.88;;;;107116;1277;65001;-31
2022/03/06 05:23:17;;;;;;;6.80;4.90;;;;;;101300.77;;;;107221;1274;64915;-37
2022/03/06 05:25:47;;;;;;;7.50;5.00;;;;;;101297.90;;;;107187;1273;64782;-37
2022/03/06 05:28:15;;;;;;;7.70;4.50;;;;;;101296.34;;;;107176;1273;64785;-31
2022/03/06 05:30:42;;;;;;;7.60;4.80;;;;;;101295.96;;;;107174;1274;64876;-31
2022/03/06 05:33:10;;;;;;;7.20;5.10;;;;;;101291.82;;;;107162;1273;64814;-37
2022/03/06 05:35:37;;;;;;;6.60;4.60;;;;;;101291.92;;;;107174;1273;64786;-37
2022/03/06 05:38:05;;;;;;;7.40;4.30;;;;;;101291.19;;;;107120;1275;66140;-32
2022/03/06 05:40:32;;;;;;;7.10;4.70;;;;;;101293.54;;;;107150;1274;64728;-32
2022/03/06 05:43:00;;;;;;;6.20;4.20;;;;;;101291.08;;;;107170;1274;64757;-32
2022/03/06 05:45:27;;;;;;;7.00;4.80;;;;;;101291.38;;;;107114;1276;64740;-32
2022/03/06 05:47:54;;;;;;;7.50;4.50;;;;;;101293.52;;;;107184;1274;64866;-37
2022/03/06 05:50:22;;;;;;;6.40;3.90;;;;;;101299.90;;;;107149;1273;64895;-36
2022/03/06 05:52:49;;;;;;;7.10;4.70;;;;;;101301.52;;;;107037;1277;64783;-38
2022/03/06 05:55:17;;;;;;;8.40;4.80;;;;;;101300.64;;;;107191;1274;64814;-38
2022/03/06 05:57:45;;;;;;;7.20;4.30;;;;;;101296.34;;;;107127;1275;64746;-37
2022/03/06 06:00:17;;;;;;;6.90;4.70;;;;;;101297.42;;;;107196;1273;64763;-37
2022/03/06 06:02:45;;;;;;;6.30;4.20;;;;;;101299.36;;;;107183;1274;65911;-30
2022/03/06 06:05:12;;;;;;;7.30;4.90;;;;;;101299.66;;;;107176;1274;64884;-32
2022/03/06 06:07:39;;;;;;;6.60;4.20;;;;;;101294.30;;;;107169;1274;64822;-31
2022/03/06 06:10:08;;;;;;;8.30;4.50;;;;;;101289.60;;;;107160;1273;64990;-32
2022/03/06 06:12:35;;;;;;;6.70;4.10;;;;;;101286.73;;;;107202;1274;64905;-37
2022/03/06 06:15:03;;;;;;;6.10;4.10;;;;;;101288.19;;;;107217;1274;64869;-38
2022/03/06 06:17:30;;;;;;;6.30;4.20;;;;;;101285.78;;;;107177;1274;64763;-32
2022/03/06 06:20:00;;;;;;;6.50;4.20;;;;;;101281.34;;;;107173;1274;64656;-32
2022/03/06 06:22:31;;;;;;;7.00;4.80;;;;;;101279.98;;;;107129;1274;64904;-35
2022/03/06 06:24:59;;;;;;;7.60;4.30;;;;;;101279.15;;;;107178;1273;64774;-37
2022/03/06 06:27:27;;;;;;;6.20;4.10;;;;;;101274.48;;;;107186;1273;66461;-36
2022/03/06 06:29:57;;;;;;;6.60;4.40;;;;;;101273.38;;;;107151;1273;64733;-31
2022/03/06 06:32:25;;;;;;;6.20;4.20;;;;;;101274.18;;;;107161;1274;64786;-32
2022/03/06 06:34:52;;;;;;;6.50;4.00;;;;;;101272.15;;;;107103;1274;64903;-31
2022/03/06 06:37:19;;;;;;;6.00;4.10;;;;;;101271.05;;;;107110;1274;64898;-32
2022/03/06 06:39:46;;;;;;;6.60;4.20;;;;;;101270.65;;;;107153;1274;67391;-32
2022/03/06 06:42:13;;;;;;;6.70;4.20;;;;;;101272.34;;;;107163;1274;64857;-31
2022/03/06 06:44:40;;;;;;;6.60;4.30;;;;;;101271.98;;;;107156;1274;64836;-31
2022/03/06 06:47:08;;;;;;;6.90;4.40;;;;;;101271.52;;;;107138;1273;64869;-31
2022/03/06 06:49:35;;;;;;;6.80;4.10;;;;;;101273.10;;;;107183;1273;64711;-37
2022/03/06 06:52:03;;;;;;;7.50;4.40;;;;;;101275.14;;;;107190;1274;66496;-37
2022/03/06 06:54:30;;;;;;;6.50;4.10;;;;;;101276.33;;;;107180;1274;64700;-32
2022/03/06 06:56:57;;;;;;;7.00;4.30;;;;;;101274.90;;;;107167;1274;64866;-31
2022/03/06 06:59:25;;;;;;;6.50;4.20;;;;;;101274.79;;;;107151;1274;64836;-31
2022/03/06 07:01:52;;;;;;;6.40;4.00;;;;;;101271.87;;;;107020;1274;64844;-32
2022/03/06 07:04:19;;;;;;;6.60;3.90;;;;;;101272.71;;;;107158;1274;67692;-31
2022/03/06 07:06:46;;;;;;;6.10;4.00;;;;;;101275.30;;;;107177;1274;64590;-31
2022/03/06 07:09:14;;;;;;;6.00;4.20;;;;;;101276.36;;;;107199;1274;64761;-37
2022/03/06 07:11:41;;;;;;;6.50;4.30;;;;;;101274.23;;;;107189;1274;64766;-36
2022/03/06 07:14:10;;;;;;;6.50;3.80;;;;;;101273.89;;;;107197;1274;64837;-31
2022/03/06 07:16:37;;;;;;;6.40;4.00;;;;;;101274.80;;;;107142;1277;64920;-32
2022/03/06 07:19:06;;;;;;;5.80;3.90;;;;;;101272.58;;;;107120;1277;64873;-37
2022/03/06 07:21:33;;;;;;;6.60;4.40;;;;;;101276.29;;;;106990;1274;64791;-37
2022/03/06 07:24:00;;;;;;;6.60;4.00;;;;;;101273.91;;;;107192;1274;64768;-37
2022/03/06 07:26:27;;;;;;;5.80;3.90;;;;;;101272.41;;;;107172;1274;64987;-37
2022/03/06 07:28:55;;;;;;;6.50;3.80;;;;;;101267.30;;;;107125;1275;66063;-37
2022/03/06 07:31:22;;;;;;;6.80;4.10;;;;;;101268.93;;;;107177;1274;64826;-37
2022/03/06 07:33:50;;;;;;;6.40;3.70;;;;;;101272.03;;;;107011;1277;64871;-37
2022/03/06 07:36:17;;;;;;;6.30;4.00;;;;;;101269.39;;;;107165;1274;64787;-37
2022/03/06 07:38:45;;;;;;;5.80;3.30;;;;;;101269.25;;;;107182;1273;64844;-37
2022/03/06 07:41:13;;;;;;;6.50;4.00;;;;;;101267.65;;;;107125;1275;66487;-36
2022/03/06 07:43:40;;;;;;;7.00;4.00;;;;;;101265.06;;;;107179;1274;64859;-32
2022/03/06 07:46:08;;;;;;;6.10;4.00;;;;;;101268.75;;;;107154;1274;64779;-32
2022/03/06 07:48:35;;;;;;;5.90;3.80;;;;;;101266.95;;;;107155;1274;64711;-36
2022/03/06 07:51:03;;;;;;;6.90;4.10;;;;;;101270.81;;;;107185;1274;64782;-38
2022/03/06 07:53:31;;;;;;;5.90;3.60;;;;;;101269.80;;;;107197;1274;66110;-31
2022/03/06 07:55:58;;;;;;;5.60;3.70;;;;;;101268.05;;;;107119;1275;64844;-32
2022/03/06 07:58:26;;;;;;;5.40;3.60;;;;;;101266.76;;;;107204;1274;64759;-32
2022/03/06 08:00:53;;;;;;;6.70;3.80;;;;;;101264.89;;;;107158;1274;64769;-31
2022/03/06 08:03:20;;;;;;;6.50;3.70;;;;;;101262.52;;;;107189;1274;64966;-32
2022/03/06 08:05:47;;;;;;;6.40;3.80;;;;;;101256.77;;;;107207;1274;65939;-35
2022/03/06 08:08:14;;;;;;;5.90;3.40;;;;;;101260.84;;;;107154;1274;64757;-32
2022/03/06 08:10:42;;;;;;;5.50;3.50;;;;;;101260.80;;;;107084;1275;64859;-32
2022/03/06 08:13:09;;;;;;;5.30;3.50;;;;;;101260.74;;;;107172;1274;64616;-37
2022/03/06 08:15:37;;;;;;;5.10;3.50;;;;;;101265.27;;;;107127;1277;64771;-37
2022/03/06 08:18:04;;;;;;;5.80;3.60;;;;;;101262.89;;;;107194;1274;66133;-37
2022/03/06 08:20:31;;;;;;;5.30;3.40;;;;;;101262.59;;;;107168;1274;64786;-37
2022/03/06 08:23:00;;;;;;;5.70;3.30;;;;;;101263.94;;;;107182;1274;64751;-38
2022/03/06 08:25:27;;;;;;;5.90;3.50;;;;;;101266.17;;;;107175;1274;64757;-37
2022/03/06 08:27:54;;;;;;;5.20;3.20;;;;;;101269.09;;;;107184;1274;64790;-38
2022/03/06 08:30:22;;;;;;;5.60;3.60;;;;;;101270.02;;;;107091;1277;64888;-37
2022/03/06 08:32:49;;;;;;;5.30;3.40;;;;;;101276.34;;;;107157;1274;64843;-32
2022/03/06 08:35:16;;;;;;;5.60;3.20;;;;;;101271.79;;;;107139;1274;64786;-32
2022/03/06 08:37:43;;;;;;;5.80;3.50;;;;;;101271.40;;;;107137;1274;64875;-37
2022/03/06 08:40:11;;;;;;;6.20;3.40;;;;;;101272.22;;;;107224;1274;64843;-44
2022/03/06 08:42:38;;;;;;;6.00;3.30;;;;;;101269.77;;;;107151;1274;64887;-33
2022/03/06 08:45:06;;;;;;;5.20;3.20;;;;;;101271.31;;;;107173;1274;65452;-32
2022/03/06 08:47:34;;;;;;;5.10;3.50;;;;;;101269.11;;;;107088;1277;64950;-32
2022/03/06 08:50:01;;;;;;;5.60;3.50;;;;;;101272.27;;;;107153;1274;64840;-39
2022/03/06 08:52:32;;;;;;;7.30;3.60;;;;;;101272.61;;;;107236;1274;64023;-36
2022/03/06 08:55:00;;;;;;;5.90;3.30;;;;;;101274.23;;;;107119;1274;64744;-38
2022/03/06 08:57:27;;;;;;;5.90;3.30;;;;;;101267.79;;;;107175;1274;64789;-35
2022/03/06 08:59:54;;;;;;;6.10;3.30;;;;;;101267.85;;;;107161;1274;64830;-32
2022/03/06 09:02:22;;;;;;;5.00;3.00;;;;;;101268.23;;;;107177;1274;64805;-32
2022/03/06 09:04:49;;;;;;;5.50;3.30;;;;;;101265.17;;;;107156;1274;64777;-32
2022/03/06 09:07:16;;;;;;;5.30;3.20;;;;;;101266.39;;;;107192;1274;66345;-32
2022/03/06 09:09:44;;;;;;;6.60;3.50;;;;;;101266.02;;;;107071;1277;64754;-37
2022/03/06 09:12:11;;;;;;;5.40;3.20;;;;;;101265.72;;;;107173;1274;64492;-41
2022/03/06 09:14:38;;;;;;;5.20;3.10;;;;;;101264.27;;;;107183;1274;64877;-42
2022/03/06 09:17:05;;;;;;;6.70;3.20;;;;;;101261.48;;;;107198;1274;64866;-42
2022/03/06 09:19:33;;;;;;;5.30;3.30;;;;;;101262.98;;;;107156;1274;67295;-32
2022/03/06 09:22:00;;;;;;;6.80;3.60;;;;;;101264.19;;;;107152;1274;64764;-32
2022/03/06 09:24:27;;;;;;;6.30;3.60;;;;;;101258.25;;;;107172;1274;64780;-37
2022/03/06 09:26:54;;;;;;;7.20;3.80;;;;;;101251.38;;;;107062;1278;64749;-38
2022/03/06 09:29:21;;;;;;;6.70;4.20;;;;;;101252.56;;;;107193;1274;64897;-32
2022/03/06 09:31:49;;;;;;;5.60;3.90;;;;;;101253.98;;;;107170;1274;65679;-32
2022/03/06 09:34:17;;;;;;;7.70;4.20;;;;;;101249.66;;;;107202;1274;64749;-32
2022/03/06 09:36:44;;;;;;;6.50;4.30;;;;;;101248.14;;;;107166;1273;64872;-32
2022/03/06 09:39:13;;;;;;;5.90;4.00;;;;;;101245.31;;;;107169;1274;64857;-32
2022/03/06 09:41:41;;;;;;;6.30;4.20;;;;;;101246.79;;;;107156;1273;64826;-32
2022/03/06 09:44:11;;;;;;;6.40;4.30;;;;;;101246.02;;;;107210;1274;66253;-37
2022/03/06 09:46:40;;;;;;;6.30;4.40;;;;;;101237.30;;;;107086;1276;64627;-38
2022/03/06 09:49:09;;;;;;;6.40;4.10;;;;;;101233.89;;;;107217;1274;64767;-37
2022/03/06 09:51:39;;;;;;;7.40;4.40;;;;;;101233.15;;;;107191;1274;65006;-38
2022/03/06 09:54:12;;;;;;;7.00;4.60;;;;;;101232.77;;;;107070;1275;64862;-37
2022/03/06 09:56:40;;;;;;;6.80;4.30;;;;;;101233.59;;;;107220;1274;66853;-37
2022/03/06 09:59:08;;;;;;;5.90;3.80;;;;;;101225.36;;;;107186;1274;64888;-32
2022/03/06 10:01:36;;;;;;;8.30;4.10;;;;;;101229.84;;;;107199;1273;64870;-32
2022/03/06 10:04:29;;;;;;;7.60;4.30;;;;;;101228.91;;;;107190;1274;64767;-32
2022/03/06 10:07:06;;;;;;;6.80;4.40;;;;;;101228.25;;;;107211;1274;64759;-33
2022/03/06 10:09:55;;;;;;;6.80;4.40;;;;;;101230.54;;;;107190;1274;66017;-39
2022/03/06 10:12:29;;;;;;;7.70;4.30;;;;;;101227.18;;;;107093;1274;64870;-37
2022/03/06 10:15:04;;;;;;;;;;;;;;101225.92;;;;107206;1274;64759;-36
2022/03/06 10:17:33;;;;;;;6.40;4.20;;;;;;101227.98;;;;107179;1274;64613;-41
2022/03/06 10:20:09;;;;;;;9.20;4.80;;;;;;101226.75;;;;107223;1274;64833;-37
2022/03/06 10:22:40;;;;;;;7.40;5.30;;;;;;101224.92;;;;107039;1277;68921;-37
2022/03/06 10:25:20;;;;;;;8.10;4.50;;;;;;101223.56;;;;107129;1274;64752;-39
2022/03/06 10:27:59;;;;;;;7.00;4.80;;;;;;101223.92;;;;107057;1276;64731;-39
2022/03/06 10:30:38;;;;;;;8.30;4.50;;;;;;101224.59;;;;107057;1277;64946;-42
2022/03/06 10:33:17;;;;;;;7.30;4.50;;;;;;101226.33;;;;107081;1275;65982;-46
2022/03/06 10:35:47;;;;;;;7.80;4.40;;;;;;101227.09;;;;107184;1274;66111;-42
2022/03/06 10:38:27;;;;;;;5.90;4.10;;;;;;101225.66;;;;107160;1274;64718;-34
2022/03/06 10:41:19;;;;;;;7.30;4.30;;;;;;101219.56;;;;107177;1273;64995;-34
2022/03/06 10:43:52;;;;;;;6.60;4.20;;;;;;101215.38;;;;107074;1275;64855;-41
2022/03/06 10:46:21;;;;;;;8.30;4.50;;;;;;101213.77;;;;107079;1277;64863;-35
2022/03/06 10:48:58;;;;;;;7.30;3.70;;;;;;101208.27;;;;107137;1273;65967;-36
2022/03/06 10:51:26;;;;;;;6.10;3.90;;;;;;101204.79;;;;107184;1273;64946;-38
2022/03/06 10:53:58;;;;;;;6.20;3.90;;;;;;101199.42;;;;107097;1277;64737;-35
2022/03/06 10:56:27;;;;;;;6.50;3.80;;;;;;101193.28;;;;107087;1275;64925;-37
2022/03/06 10:58:56;;;;;;;6.20;3.40;;;;;;101190.13;;;;107145;1274;64824;-36
2022/03/06 11:01:24;;;;;;;6.50;3.60;;;;;;101190.60;;;;107203;1273;66375;-35
2022/03/06 11:03:53;;;;;;;6.40;3.70;;;;;;101188.34;;;;107057;1273;64959;-31
2022/03/06 11:06:20;;;;;;;7.50;3.80;;;;;;101187.08;;;;107129;1275;64837;-33
2022/03/06 11:08:48;;;;;;;7.10;3.70;;;;;;101182.36;;;;107191;1273;64821;-34
2022/03/06 11:11:15;;;;;;;6.10;3.40;;;;;;101179.92;;;;107103;1275;64876;-34
2022/03/06 11:13:43;;;;;;;5.50;3.40;;;;;;101180.19;;;;107182;1274;67893;-34
2022/03/06 11:16:10;;;;;;;6.30;3.70;;;;;;101177.39;;;;107157;1274;64823;-35
2022/03/06 11:18:38;;;;;;;5.70;3.20;;;;;;101177.98;;;;106997;1274;64759;-30
2022/03/06 11:21:07;;;;;;;5.20;3.00;;;;;;101178.65;;;;107231;1273;64743;-30
2022/03/06 11:23:48;;;;;;;5.50;3.20;;;;;;101172.24;;;;107200;1273;64690;-30
2022/03/06 11:26:15;;;;;;;5.20;3.20;;;;;;101171.47;;;;107204;1273;65845;-30
2022/03/06 11:29:13;;;;;;;6.60;3.30;;;;;;101166.64;;;;107178;1273;64764;-35
2022/03/06 11:31:49;;;;;;;5.10;3.20;;;;;;101160.50;;;;107060;1274;64758;-35
2022/03/06 11:34:40;;;;;;;5.30;3.00;;;;;;101152.84;;;;107036;1274;64817;-30
2022/03/06 11:37:15;;;;;;;5.60;3.20;;;;;;101149.49;;;;107195;1273;64786;-31
2022/03/06 11:39:42;;;;;;;5.10;2.70;;;;;;101149.42;;;;107198;1273;66901;-30
2022/03/06 11:42:10;;;;;;;5.40;2.90;;;;;;101149.06;;;;107170;1274;64780;-31
2022/03/06 11:44:48;;;;;;;6.00;2.80;;;;;;101146.80;;;;107184;1273;64862;-35
2022/03/06 11:47:35;;;;;;;6.10;3.00;;;;;;101140.86;;;;107189;1274;64949;-34
2022/03/06 11:50:04;;;;;;;5.50;3.20;;;;;;101135.61;;;;107143;1274;64969;-30
2022/03/06 11:52:33;;;;;;;4.90;2.90;;;;;;101134.67;;;;107206;1274;65124;-30
2022/03/06 11:55:03;;;;;;;5.10;2.70;;;;;;101130.28;;;;107222;1274;64850;-30
2022/03/06 11:57:39;;;;;;;5.70;3.20;;;;;;101123.90;;;;107119;1274;64886;-33
2022/03/06 12:00:24;;;;;;;6.20;3.10;;;;;;101121.14;;;;107194;1274;64711;-34
2022/03/06 12:02:58;;;;;;;5.80;2.80;;;;;;101116.37;;;;107144;1274;64866;-34
2022/03/06 12:05:56;;;;;;;5.70;2.90;;;;;;101112.19;;;;107223;1274;66083;-34
2022/03/06 12:08:24;;;;;;;5.80;2.70;;;;;;101110.70;;;;107165;1274;64715;-34
2022/03/06 12:10:52;;;;;;;5.90;3.00;;;;;;101107.65;;;;107105;1274;64947;-34
2022/03/06 12:13:23;;;;;;;6.10;3.10;;;;;;101106.20;;;;107113;1276;63546;-30
2022/03/06 12:16:08;;;;;;;5.60;3.20;;;;;;101101.45;;;;107221;1273;64769;-30
2022/03/06 12:18:35;;;;;;;6.90;3.20;;;;;;101095.67;;;;107204;1274;67673;-30
2022/03/06 12:21:20;;;;;;;6.40;2.80;;;;;;101094.31;;;;107018;1274;64888;-30
2022/03/06 12:23:48;;;;;;;5.10;2.50;;;;;;101093.23;;;;107106;1274;64869;-34
2022/03/06 12:26:41;;;;;;;5.90;2.70;;;;;;101089.95;;;;106876;1274;268566;-34
2022/03/06 12:29:08;;;;;;;5.10;2.50;;;;;;101090.36;;;;107116;1274;64901;-30
2022/03/06 12:31:37;;;;;;;4.80;3.00;;;;;;101091.20;;;;107148;1273;65725;-30
2022/03/06 12:34:36;;;;;;;5.00;2.90;;;;;;101091.70;;;;107178;1273;64789;-34
2022/03/06 12:37:05;;;;;;;5.30;2.90;;;;;;101086.73;;;;107017;1274;64885;-35
2022/03/06 12:39:35;;;;;;;6.60;3.20;;;;;;101085.90;;;;107209;1274;64750;-35
2022/03/06 12:42:03;;;;;;;5.40;2.90;;;;;;101082.73;;;;107191;1274;65478;-34
2022/03/06 12:44:31;;;;;;;4.50;2.80;;;;;;101076.20;;;;107053;1273;64982;-30
2022/03/06 12:46:58;;;;;;;5.60;2.90;;;;;;101074.02;;;;107201;1273;65299;-30
2022/03/06 12:49:25;;;;;;;5.10;3.10;;;;;;101069.13;;;;107185;1273;64885;-30
2022/03/06 12:51:54;;;;;;;6.00;3.20;;;;;;101064.39;;;;107093;1274;64826;-30
2022/03/06 12:54:24;;;;;;;6.10;3.40;;;;;;101063.98;;;;107191;1274;64891;-35
2022/03/06 12:56:56;;;;;;;5.00;3.50;;;;;;101062.20;;;;107193;1273;65329;-34